Time;durP1;ratioP1;P1;durP2;ratioP2;P2;SDS_P1;SDS_P2;PMS_P1;PMS_P2;Temp;Humidity;BMP_temperature;BMP_pressure;BME280_temperature;BME280_humidity;BME280_pressure;Samples;Min_cycle;Max_cycle;Signal;HPM_P1;HPM_P2
2023/06/14 00:02:14;;;;;;;2.70;2.03;;;;;;;16.21;49.27;100967.16;4990846;28;20490;-81
2023/06/14 00:04:41;;;;;;;5.15;1.92;;;;;;;16.18;49.54;100971.69;4991363;28;20045;-80
2023/06/14 00:07:08;;;;;;;3.72;2.80;;;;;;;16.13;49.77;100973.56;5004249;28;20128;-81
2023/06/14 00:09:36;;;;;;;1.90;1.77;;;;;;;16.12;49.82;100977.13;4986366;28;20046;-81
2023/06/14 00:12:02;;;;;;;3.20;2.20;;;;;;;16.09;49.88;100974.53;4987603;28;20666;-82
2023/06/14 00:14:29;;;;;;;7.72;1.85;;;;;;;16.07;49.99;100974.59;4991332;28;20676;-80
2023/06/14 00:16:58;;;;;;;3.10;1.70;;;;;;;16.04;50.46;100977.31;4988550;28;20153;-84
2023/06/14 00:19:26;;;;;;;2.47;1.85;;;;;;;15.98;50.23;100985.41;4986038;28;20054;-80
2023/06/14 00:21:52;;;;;;;3.22;1.70;;;;;;;15.91;50.60;100975.91;4972135;28;20113;-80
2023/06/14 00:24:19;;;;;;;5.68;2.35;;;;;;;15.86;50.73;100976.88;4988143;28;20054;-84
2023/06/14 00:26:45;;;;;;;2.15;1.83;;;;;;;15.84;50.77;100981.34;4972615;28;20034;-86
2023/06/14 00:29:12;;;;;;;2.00;1.90;;;;;;;15.80;50.92;100982.31;4957460;28;20046;-81
2023/06/14 00:31:38;;;;;;;2.92;2.40;;;;;;;15.78;51.16;100981.47;4983450;28;20042;-82
2023/06/14 00:34:05;;;;;;;2.25;1.63;;;;;;;15.74;51.25;100987.72;4972512;28;20494;-83
2023/06/14 00:36:31;;;;;;;5.63;2.30;;;;;;;15.73;51.74;100986.00;4973050;28;20477;-80
2023/06/14 00:38:57;;;;;;;3.83;1.80;;;;;;;15.73;51.59;100991.28;4981348;28;20516;-81
2023/06/14 00:41:24;;;;;;;5.32;2.42;;;;;;;15.74;51.25;100985.09;4965669;28;20054;-79
2023/06/14 00:43:51;;;;;;;3.47;2.30;;;;;;;15.71;51.29;100983.41;4981218;28;20057;-79
2023/06/14 00:46:19;;;;;;;2.25;2.00;;;;;;;15.70;51.65;100979.00;4954776;28;20568;-83
2023/06/14 00:48:45;;;;;;;4.00;1.70;;;;;;;15.64;52.16;100989.72;4969953;28;20046;-86
2023/06/14 00:51:12;;;;;;;4.18;1.88;;;;;;;15.59;52.05;100991.63;4975410;28;20034;-79
2023/06/14 00:53:40;;;;;;;2.30;1.65;;;;;;;15.52;52.40;100987.38;4974112;28;20043;-85
2023/06/14 00:56:07;;;;;;;2.95;2.17;;;;;;;15.49;53.25;100993.59;4980098;28;20049;-80
2023/06/14 00:58:34;;;;;;;4.88;1.92;;;;;;;15.46;53.12;100988.41;4990836;28;20050;-79
2023/06/14 01:01:00;;;;;;;2.17;1.77;;;;;;;15.44;53.12;100990.22;4983042;28;20046;-80
2023/06/14 01:03:28;;;;;;;4.72;1.95;;;;;;;15.38;53.14;101006.19;4974421;28;20042;-79
2023/06/14 01:06:14;;;;;;;3.30;1.88;;;;;;;15.32;53.39;100998.44;4988274;28;20042;-79
2023/06/14 01:08:58;;;;;;;3.22;2.13;;;;;;;15.30;54.03;100997.59;4970192;28;20145;-81
2023/06/14 01:11:33;;;;;;;2.57;2.03;;;;;;;15.25;53.70;100996.81;4951559;28;20481;-79
2023/06/14 01:14:03;;;;;;;2.33;2.13;;;;;;;15.18;54.60;100998.72;4968456;28;20098;-81
2023/06/14 01:16:32;;;;;;;2.53;1.63;;;;;;;15.13;54.51;100996.19;4970081;28;20042;-83
2023/06/14 01:18:59;;;;;;;2.40;2.15;;;;;;;15.09;54.42;100989.25;4986918;28;20058;-90
2023/06/14 01:21:28;;;;;;;2.05;1.95;;;;;;;15.05;55.11;101000.78;5000677;28;20026;-86
2023/06/14 01:23:55;;;;;;;2.75;2.05;;;;;;;15.04;55.15;100999.03;4987598;28;20042;-79
2023/06/14 01:26:23;;;;;;;2.05;1.95;;;;;;;15.01;55.44;100997.31;4976437;28;20449;-79
2023/06/14 01:28:52;;;;;;;4.32;1.75;;;;;;;14.98;55.74;100997.41;4973715;28;20096;-86
2023/06/14 01:31:22;;;;;;;2.45;1.80;;;;;;;14.97;55.83;101000.09;4976212;28;20050;-90
2023/06/14 01:33:52;;;;;;;2.08;1.85;;;;;;;14.95;56.31;100999.22;4973001;28;20110;-87
2023/06/14 01:36:23;;;;;;;1.75;1.48;;;;;;;14.92;56.46;100997.53;4964702;28;20043;-83
2023/06/14 01:38:51;;;;;;;4.20;1.67;;;;;;;14.86;56.20;100995.91;4973123;28;20050;-81
2023/06/14 01:41:20;;;;;;;2.88;2.17;;;;;;;14.84;56.85;101000.34;4970291;28;20050;-79
2023/06/14 01:43:48;;;;;;;3.40;2.08;;;;;;;14.83;56.94;101005.63;4953736;28;20050;-85
2023/06/14 01:46:16;;;;;;;6.75;2.40;;;;;;;14.83;57.02;101001.22;4974814;28;20052;-83
2023/06/14 01:48:43;;;;;;;4.03;2.20;;;;;;;14.81;57.04;101002.16;4967135;28;20041;-85
2023/06/14 01:51:09;;;;;;;3.00;2.03;;;;;;;14.80;57.23;101001.31;4949379;28;20043;-84
2023/06/14 01:53:36;;;;;;;3.00;1.63;;;;;;;14.76;57.46;100993.47;4989608;28;20042;-80
2023/06/14 01:56:03;;;;;;;3.78;1.83;;;;;;;14.73;57.31;100994.41;4986408;28;20133;-80
2023/06/14 01:58:31;;;;;;;2.72;2.53;;;;;;;14.72;57.77;101003.25;4975684;28;20457;-85
2023/06/14 02:00:57;;;;;;;2.97;1.67;;;;;;;14.70;57.75;100997.13;4976640;28;20034;-82
2023/06/14 02:03:24;;;;;;;4.40;2.15;;;;;;;14.70;58.51;101007.66;4972203;28;20096;-80
2023/06/14 02:05:51;;;;;;;2.30;2.10;;;;;;;14.67;58.39;101005.94;4991049;28;20564;-82
2023/06/14 02:08:18;;;;;;;2.22;1.40;;;;;;;14.60;58.57;101003.44;4986242;28;20053;-82
2023/06/14 02:10:44;;;;;;;3.90;1.70;;;;;;;14.56;58.83;101000.00;4973962;28;20501;-80
2023/06/14 02:13:11;;;;;;;2.13;1.92;;;;;;;14.50;59.32;100995.72;4971324;28;20133;-80
2023/06/14 02:15:38;;;;;;;3.85;1.70;;;;;;;14.45;59.90;101000.22;4954609;28;20070;-85
2023/06/14 02:18:05;;;;;;;1.88;1.77;;;;;;;14.41;60.03;101003.81;4973321;28;20387;-82
2023/06/14 02:20:32;;;;;;;3.38;1.83;;;;;;;14.40;60.32;101009.97;4970894;28;20054;-80
2023/06/14 02:22:58;;;;;;;1.88;1.77;;;;;;;14.37;60.61;101010.03;4970391;28;20057;-82
2023/06/14 02:25:27;;;;;;;4.18;1.60;;;;;;;14.33;61.06;101006.59;4967144;28;20054;-80
2023/06/14 02:27:55;;;;;;;2.60;1.90;;;;;;;14.30;60.96;101011.03;4997455;28;20125;-81
2023/06/14 02:30:22;;;;;;;1.88;1.48;;;;;;;14.25;60.88;101008.50;4976016;28;20053;-80
2023/06/14 02:32:50;;;;;;;2.45;2.00;;;;;;;14.22;61.50;101014.69;4974215;28;20538;-85
2023/06/14 02:35:17;;;;;;;5.47;2.17;;;;;;;14.18;61.35;101026.19;4973181;28;20050;-82
2023/06/14 02:37:43;;;;;;;3.10;1.30;;;;;;;14.13;61.37;101022.75;4969704;28;20042;-81
2023/06/14 02:40:11;;;;;;;1.83;1.60;;;;;;;14.11;61.92;101015.78;4988106;28;20050;-80
2023/06/14 02:42:37;;;;;;;1.73;1.63;;;;;;;14.09;62.98;101015.78;4989434;28;20130;-81
2023/06/14 02:45:04;;;;;;;2.97;1.92;;;;;;;14.10;62.56;101022.81;4983138;28;20382;-80
2023/06/14 02:47:30;;;;;;;2.67;2.03;;;;;;;14.07;62.47;101014.97;4966484;28;20046;-82
2023/06/14 02:49:57;;;;;;;2.08;1.98;;;;;;;14.03;63.30;101021.19;4966665;28;20038;-81
2023/06/14 02:52:25;;;;;;;2.83;1.83;;;;;;;14.03;63.30;101022.03;4969767;28;20154;-80
2023/06/14 02:54:51;;;;;;;1.83;1.73;;;;;;;13.99;63.45;101028.25;4956044;28;20456;-81
2023/06/14 02:57:18;;;;;;;4.00;1.73;;;;;;;13.95;63.47;101030.97;4971610;28;20152;-80
2023/06/14 02:59:44;;;;;;;2.92;2.05;;;;;;;13.93;63.50;101027.50;4972643;28;20053;-80
2023/06/14 03:02:11;;;;;;;2.13;1.92;;;;;;;13.88;63.79;101035.47;4971914;28;20042;-82
2023/06/14 03:04:38;;;;;;;1.27;1.08;;;;;;;13.86;64.36;101035.50;4964711;28;20126;-80
2023/06/14 03:07:09;;;;;;;1.90;1.80;;;;;;;13.84;63.99;101045.16;4972437;28;20050;-81
2023/06/14 03:09:38;;;;;;;2.53;1.90;;;;;;;13.82;64.38;101048.72;4970404;28;20069;-80
2023/06/14 03:12:07;;;;;;;3.17;2.20;;;;;;;13.78;64.50;101047.91;4989393;28;20054;-81
2023/06/14 03:14:34;;;;;;;1.77;1.67;;;;;;;13.76;64.49;101046.19;4968950;28;20042;-81
2023/06/14 03:17:01;;;;;;;2.50;1.60;;;;;;;13.73;64.81;101039.22;4972301;28;20093;-82
2023/06/14 03:19:27;;;;;;;2.15;1.60;;;;;;;13.69;65.16;101054.19;4970752;28;20046;-90
2023/06/14 03:21:56;;;;;;;2.45;2.00;;;;;;;13.65;65.44;101052.50;4985083;28;20038;-82
2023/06/14 03:24:27;;;;;;;2.05;1.45;;;;;;;13.62;65.78;101057.78;4982491;28;20097;-79
2023/06/14 03:26:53;;;;;;;2.80;1.40;;;;;;;13.64;65.74;101055.16;4986489;28;20057;-80
2023/06/14 03:29:20;;;;;;;4.30;1.85;;;;;;;13.68;65.91;101067.38;4987449;28;20049;-88
2023/06/14 03:32:02;;;;;;;1.80;1.40;;;;;;;13.66;66.46;101062.13;4984976;28;20042;-83
2023/06/14 03:34:28;;;;;;;6.88;2.63;;;;;;;13.63;65.81;101067.41;4989741;28;20053;-81
2023/06/14 03:36:55;;;;;;;5.57;2.17;;;;;;;13.62;66.88;101065.66;4989239;28;20112;-88
2023/06/14 03:39:21;;;;;;;5.30;3.97;;;;;;;13.65;66.73;101070.03;4974469;28;20145;-85
2023/06/14 03:41:48;;;;;;;3.47;2.10;;;;;;;13.65;66.46;101067.38;4985879;28;20038;-83
2023/06/14 03:44:19;;;;;;;4.50;2.33;;;;;;;13.65;66.93;101070.91;4988164;28;20238;-81
2023/06/14 03:46:46;;;;;;;1.80;1.70;;;;;;;13.63;66.50;101072.69;4985488;28;20057;-86
2023/06/14 03:49:13;;;;;;;3.80;1.98;;;;;;;13.64;66.24;101065.69;4987896;28;20062;-80
2023/06/14 03:51:40;;;;;;;2.42;2.22;;;;;;;13.66;66.18;101072.66;4986375;28;20072;-86
2023/06/14 03:54:07;;;;;;;3.35;1.75;;;;;;;13.68;66.19;101070.84;4986558;28;20058;-85
2023/06/14 03:56:33;;;;;;;3.30;1.85;;;;;;;13.71;66.39;101080.47;4987717;28;20062;-83
2023/06/14 03:59:00;;;;;;;9.20;1.80;;;;;;;13.73;66.76;101076.06;4985239;28;20050;-90
2023/06/14 04:01:29;;;;;;;2.80;1.77;;;;;;;13.76;67.18;101085.66;4989473;28;20403;-81
2023/06/14 04:03:57;;;;;;;3.33;2.33;;;;;;;13.78;66.75;101081.22;4995597;28;20070;-80
2023/06/14 04:06:24;;;;;;;2.20;1.55;;;;;;;13.81;66.30;101083.84;4989254;28;20085;-80
2023/06/14 04:08:53;;;;;;;2.45;2.13;;;;;;;13.84;66.59;101087.25;4989324;28;20566;-80
2023/06/14 04:11:19;;;;;;;4.22;2.38;;;;;;;13.89;66.44;101089.84;4988998;28;20050;-81
2023/06/14 04:13:46;;;;;;;2.83;1.90;;;;;;;13.91;66.77;101095.97;4990463;28;20039;-80
2023/06/14 04:16:13;;;;;;;2.35;1.88;;;;;;;13.96;66.13;101087.97;4990316;28;20062;-80
2023/06/14 04:18:39;;;;;;;4.05;1.75;;;;;;;14.00;66.54;101089.66;4988927;28;20050;-80
2023/06/14 04:21:08;;;;;;;2.47;1.92;;;;;;;14.16;66.00;101095.56;4989289;28;20058;-82
2023/06/14 04:23:34;;;;;;;4.82;1.70;;;;;;;14.39;64.85;101093.41;4993048;28;20377;-79
2023/06/14 04:26:02;;;;;;;1.70;1.60;;;;;;;14.60;64.03;101101.81;4989625;28;20057;-92
2023/06/14 04:28:29;;;;;;;1.90;1.75;;;;;;;14.63;63.60;101104.38;4973986;28;20121;-80
2023/06/14 04:30:56;;;;;;;3.75;2.38;;;;;;;14.52;63.88;101095.78;4985729;28;20077;-87
2023/06/14 04:33:25;;;;;;;3.40;2.33;;;;;;;14.43;64.05;101099.47;4972683;28;20117;-82
2023/06/14 04:35:53;;;;;;;8.07;3.35;;;;;;;14.42;64.50;101095.09;4990416;28;20142;-82
2023/06/14 04:38:25;;;;;;;2.25;2.08;;;;;;;14.42;64.65;101100.38;4984145;28;20112;-80
2023/06/14 04:40:52;;;;;;;6.22;2.33;;;;;;;14.39;64.32;101106.56;4988106;28;20034;-83
2023/06/14 04:43:26;;;;;;;4.10;1.75;;;;;;;14.38;64.79;101112.72;4985478;28;20843;-79
2023/06/14 04:45:54;;;;;;;5.18;1.98;;;;;;;14.36;65.04;101118.91;4989055;28;20073;-80
2023/06/14 04:48:22;;;;;;;3.47;2.30;;;;;;;14.34;65.19;101121.56;4991277;28;20241;-79
2023/06/14 04:50:52;;;;;;;2.50;1.83;;;;;;;14.38;64.96;101117.13;4985071;28;20102;-79
2023/06/14 04:53:22;;;;;;;3.47;1.42;;;;;;;14.44;64.72;101129.31;4987905;28;20046;-79
2023/06/14 04:55:50;;;;;;;5.35;2.28;;;;;;;14.49;64.51;101128.31;4982999;28;20080;-80
2023/06/14 04:58:17;;;;;;;7.78;2.00;;;;;;;14.51;64.42;101129.19;4968731;28;20065;-83
2023/06/14 05:00:44;;;;;;;3.97;2.20;;;;;;;14.50;64.88;101119.53;4972002;28;20433;-78
2023/06/14 05:03:12;;;;;;;3.88;1.75;;;;;;;14.49;64.94;101125.69;4985410;28;20039;-81
2023/06/14 05:05:41;;;;;;;1.75;1.50;;;;;;;14.49;64.86;101127.47;4973573;28;20412;-79
2023/06/14 05:08:09;;;;;;;4.50;2.00;;;;;;;14.48;65.00;101125.72;4985930;28;20062;-84
2023/06/14 05:10:36;;;;;;;4.30;1.77;;;;;;;14.49;65.11;101130.09;4984382;28;20131;-80
2023/06/14 05:13:02;;;;;;;6.03;1.98;;;;;;;14.51;65.15;101133.56;4980255;28;20042;-80
2023/06/14 05:15:29;;;;;;;3.78;2.97;;;;;;;14.57;64.66;101136.09;4985992;28;20046;-90
2023/06/14 05:17:56;;;;;;;5.53;2.58;;;;;;;14.61;64.86;101132.50;4971266;28;20038;-81
2023/06/14 05:20:24;;;;;;;5.15;2.47;;;;;;;14.67;64.47;101142.13;4963299;28;20043;-79
2023/06/14 05:22:52;;;;;;;5.25;1.55;;;;;;;14.74;64.14;101135.81;4984994;28;20049;-85
2023/06/14 05:25:21;;;;;;;3.67;1.33;;;;;;;14.78;64.14;101134.84;4987488;28;20050;-79
2023/06/14 05:27:48;;;;;;;11.02;4.45;;;;;;;14.85;63.86;101140.91;4972432;28;20043;-81
2023/06/14 05:30:16;;;;;;;4.05;1.60;;;;;;;14.93;63.67;101138.09;4985895;28;20049;-78
2023/06/14 05:32:43;;;;;;;4.35;1.67;;;;;;;14.96;63.48;101143.34;4987761;28;20052;-80
2023/06/14 05:35:10;;;;;;;4.50;1.98;;;;;;;15.00;63.52;101152.91;4986880;28;20615;-79
2023/06/14 05:37:36;;;;;;;5.03;1.73;;;;;;;15.03;63.19;101145.81;4979591;28;20069;-82
2023/06/14 05:40:06;;;;;;;7.20;2.03;;;;;;;15.04;63.50;101144.03;4987291;28;20045;-80
2023/06/14 05:42:34;;;;;;;6.70;1.52;;;;;;;15.06;63.18;101150.16;4986032;28;20046;-79
2023/06/14 05:45:01;;;;;;;3.65;1.70;;;;;;;15.04;63.45;101147.56;4989260;28;20047;-83
2023/06/14 05:47:28;;;;;;;2.90;1.42;;;;;;;15.01;63.48;101150.25;4992025;28;20038;-80
2023/06/14 05:49:56;;;;;;;2.45;1.30;;;;;;;15.05;63.45;101154.56;4981981;28;20050;-80
2023/06/14 05:52:22;;;;;;;3.42;1.67;;;;;;;15.04;63.62;101155.47;4980237;28;20055;-83
2023/06/14 05:54:49;;;;;;;9.27;1.70;;;;;;;15.07;63.62;101154.56;4988629;28;20034;-80
2023/06/14 05:57:15;;;;;;;4.65;1.75;;;;;;;15.11;63.94;101158.84;4979232;28;20057;-81
2023/06/14 05:59:42;;;;;;;4.30;2.38;;;;;;;15.06;63.99;101147.53;4990903;28;20096;-83
2023/06/14 06:02:08;;;;;;;3.25;1.40;;;;;;;15.03;64.28;101151.09;4984890;28;20050;-83
2023/06/14 06:04:35;;;;;;;6.40;1.80;;;;;;;15.16;64.02;101159.63;4988225;28;20046;-83
2023/06/14 06:07:02;;;;;;;3.88;1.55;;;;;;;15.21;63.77;101157.78;4973203;28;20069;-82
2023/06/14 06:09:30;;;;;;;3.28;2.05;;;;;;;15.26;63.35;101152.38;4990223;28;20046;-79
2023/06/14 06:11:56;;;;;;;7.05;2.00;;;;;;;15.26;63.58;101159.44;4989456;28;20370;-79
2023/06/14 06:14:23;;;;;;;3.50;1.50;;;;;;;15.30;63.46;101169.88;4973294;28;20058;-81
2023/06/14 06:16:50;;;;;;;5.82;1.77;;;;;;;15.34;63.28;101162.78;4967751;28;20049;-86
2023/06/14 06:19:16;;;;;;;13.93;2.17;;;;;;;15.40;62.62;101162.66;4987261;28;20096;-85
2023/06/14 06:21:43;;;;;;;4.80;1.45;;;;;;;15.39;62.79;101158.28;4971888;28;20047;-79
2023/06/14 06:24:09;;;;;;;4.68;2.13;;;;;;;15.37;62.54;101162.75;4967925;28;20126;-80
2023/06/14 06:26:36;;;;;;;3.17;1.48;;;;;;;15.35;62.67;101157.47;4970063;28;20049;-85
2023/06/14 06:29:02;;;;;;;2.47;1.85;;;;;;;15.42;63.02;101160.84;4950972;28;20050;-81
2023/06/14 06:31:29;;;;;;;3.95;1.77;;;;;;;15.49;62.64;101159.84;4970850;28;20066;-81
2023/06/14 06:33:56;;;;;;;2.15;1.95;;;;;;;15.54;62.87;101165.88;4957560;28;20078;-80
2023/06/14 06:36:23;;;;;;;2.88;2.10;;;;;;;15.58;62.37;101171.97;4970706;28;20054;-86
2023/06/14 06:38:49;;;;;;;4.15;2.03;;;;;;;15.59;61.96;101172.81;4976663;28;20049;-80
2023/06/14 06:41:16;;;;;;;5.07;1.92;;;;;;;15.65;61.92;101165.63;4968337;28;20042;-80
2023/06/14 06:43:42;;;;;;;3.10;1.08;;;;;;;15.73;60.89;101175.16;4976867;28;20053;-81
2023/06/14 06:46:09;;;;;;;3.55;2.08;;;;;;;15.76;60.92;101181.25;4972131;28;20058;-80
2023/06/14 06:48:35;;;;;;;3.20;1.38;;;;;;;15.84;60.59;101178.47;4979176;28;20056;-80
2023/06/14 06:51:02;;;;;;;1.38;1.27;;;;;;;15.90;60.28;101174.81;4972971;28;20046;-81
2023/06/14 06:53:28;;;;;;;2.60;1.10;;;;;;;15.95;60.23;101183.50;4971461;28;20042;-80
2023/06/14 06:55:55;;;;;;;2.70;1.42;;;;;;;16.06;59.32;101196.47;4970734;28;20750;-85
2023/06/14 06:58:22;;;;;;;2.58;1.73;;;;;;;16.06;58.93;101201.75;4986473;28;20051;-86
2023/06/14 07:00:48;;;;;;;6.63;2.20;;;;;;;16.07;58.46;101193.78;4974038;28;20133;-81
2023/06/14 07:03:15;;;;;;;1.40;1.30;;;;;;;16.12;58.43;101194.53;4986895;28;20047;-83
2023/06/14 07:05:41;;;;;;;2.17;1.45;;;;;;;16.18;58.38;101198.81;4970072;28;20066;-82
2023/06/14 07:08:08;;;;;;;2.15;1.98;;;;;;;16.11;57.93;101203.34;4975214;28;20045;-83
2023/06/14 07:10:37;;;;;;;1.45;1.30;;;;;;;16.18;57.97;101206.75;4975519;28;20050;-81
2023/06/14 07:13:04;;;;;;;2.85;1.42;;;;;;;16.28;56.94;101202.09;4955009;28;20469;-88
2023/06/14 07:15:30;;;;;;;3.65;1.38;;;;;;;16.38;57.39;101199.19;4971057;28;20045;-80
2023/06/14 07:17:59;;;;;;;2.42;1.10;;;;;;;16.51;56.60;101202.41;4970632;28;20038;-80
2023/06/14 07:20:26;;;;;;;1.98;1.42;;;;;;;16.65;56.17;101203.84;4993883;28;20068;-82
2023/06/14 07:22:52;;;;;;;5.07;1.55;;;;;;;16.82;55.58;101203.41;4977801;28;20045;-82
2023/06/14 07:25:19;;;;;;;2.25;1.10;;;;;;;17.24;54.19;101200.53;5000632;28;20077;-85
2023/06/14 07:27:47;;;;;;;2.72;1.10;;;;;;;17.72;53.04;101204.47;4986841;28;20069;-86
2023/06/14 07:30:13;;;;;;;3.90;1.35;;;;;;;18.17;51.09;101206.63;4982417;28;20046;-82
2023/06/14 07:32:40;;;;;;;1.33;1.20;;;;;;;18.52;49.99;101195.78;4969968;28;20133;-81
2023/06/14 07:35:10;;;;;;;1.42;1.33;;;;;;;18.92;48.69;101194.44;4983632;28;20034;-81
2023/06/14 07:37:37;;;;;;;4.43;1.90;;;;;;;19.43;47.35;101197.91;4980281;28;20111;-84
2023/06/14 07:40:06;;;;;;;2.25;1.67;;;;;;;19.84;45.81;101194.63;4980748;28;20042;-84
2023/06/14 07:42:35;;;;;;;1.05;0.90;;;;;;;20.33;43.87;101195.31;4976058;28;20066;-85
2023/06/14 07:45:02;;;;;;;2.80;2.25;;;;;;;20.64;43.56;101198.50;5000264;28;20131;-84
2023/06/14 07:47:28;;;;;;;2.92;1.50;;;;;;;20.97;42.24;101198.84;4985121;28;20049;-80
2023/06/14 07:49:56;;;;;;;3.17;1.30;;;;;;;21.13;42.65;101196.41;4970805;28;20046;-83
2023/06/14 07:52:23;;;;;;;1.48;1.02;;;;;;;21.76;40.91;101203.31;4986248;28;20043;-80
2023/06/14 07:54:49;;;;;;;2.40;1.25;;;;;;;21.88;41.04;101201.03;4984826;28;20105;-81
2023/06/14 07:57:16;;;;;;;2.97;1.40;;;;;;;22.06;40.31;101196.56;4986883;28;20756;-80
2023/06/14 07:59:42;;;;;;;1.45;1.13;;;;;;;22.13;39.74;101185.53;4985130;28;20563;-80
2023/06/14 08:02:09;;;;;;;1.33;1.23;;;;;;;22.43;39.80;101186.81;4971450;28;20046;-83
2023/06/14 08:04:36;;;;;;;2.22;1.23;;;;;;;22.68;38.94;101191.75;4988315;28;20042;-80
2023/06/14 08:07:02;;;;;;;1.58;1.48;;;;;;;23.06;37.55;101193.38;4987363;28;20053;-83
2023/06/14 08:09:29;;;;;;;3.60;1.33;;;;;;;23.00;37.90;101191.88;4989534;28;20038;-79
2023/06/14 08:11:56;;;;;;;4.68;1.75;;;;;;;23.46;37.06;101194.78;4985345;28;20050;-82
2023/06/14 08:14:23;;;;;;;2.05;1.40;;;;;;;23.78;36.97;101185.94;4986477;28;20050;-87
2023/06/14 08:16:49;;;;;;;2.05;1.88;;;;;;;24.17;35.76;101194.47;4999847;28;20066;-87
2023/06/14 08:19:16;;;;;;;1.33;0.95;;;;;;;24.57;35.64;101187.63;4997301;28;20061;-89
2023/06/14 08:21:43;;;;;;;3.65;1.30;;;;;;;24.68;35.13;101187.03;4988434;28;20130;-82
2023/06/14 08:24:12;;;;;;;1.15;1.15;;;;;;;24.11;35.46;101199.22;4979515;28;20054;-84
2023/06/14 08:26:40;;;;;;;2.03;1.30;;;;;;;24.13;35.42;101187.59;4979024;28;20118;-84
2023/06/14 08:29:07;;;;;;;1.75;1.55;;;;;;;24.35;35.40;101201.41;4984180;28;20046;-83
2023/06/14 08:31:34;;;;;;;1.85;1.33;;;;;;;24.61;34.78;101207.94;4983379;28;20057;-83
2023/06/14 08:34:01;;;;;;;1.92;1.58;;;;;;;24.63;35.01;101202.53;4981944;28;20062;-83
2023/06/14 08:36:27;;;;;;;1.60;1.50;;;;;;;24.57;34.88;101203.69;4993405;28;20062;-85
2023/06/14 08:38:55;;;;;;;3.33;1.42;;;;;;;24.56;34.57;101204.69;4956273;28;20042;-79
2023/06/14 08:41:24;;;;;;;8.82;2.58;;;;;;;24.93;33.87;101198.94;4972738;28;20053;-84
2023/06/14 08:43:51;;;;;;;2.08;1.60;;;;;;;25.05;33.42;101205.38;4992318;28;20045;-82
2023/06/14 08:46:20;;;;;;;5.93;1.83;;;;;;;25.37;32.79;101195.38;4974369;28;20077;-80
2023/06/14 08:48:50;;;;;;;1.38;1.27;;;;;;;25.57;32.17;101203.97;4992012;28;20481;-81
2023/06/14 08:51:21;;;;;;;1.52;1.42;;;;;;;25.76;31.74;101192.91;4977986;28;20438;-82
2023/06/14 08:53:57;;;;;;;3.80;1.63;;;;;;;26.07;30.85;101197.19;4992395;28;20413;-81
2023/06/14 08:56:27;;;;;;;2.45;1.35;;;;;;;25.95;31.22;101192.56;4960644;28;20042;-82
2023/06/14 08:58:54;;;;;;;1.52;1.42;;;;;;;26.75;31.02;101194.47;4961978;28;20077;-85
2023/06/14 09:01:23;;;;;;;4.30;1.83;;;;;;;27.72;29.64;101189.47;4974138;28;20073;-82
2023/06/14 09:03:51;;;;;;;1.38;1.38;;;;;;;28.38;28.81;101194.47;4998909;28;20058;-79
2023/06/14 09:06:19;;;;;;;3.70;1.42;;;;;;;28.71;27.92;101191.06;4951595;28;20050;-81
2023/06/14 09:08:47;;;;;;;1.17;1.17;;;;;;;28.55;27.44;101193.19;4990175;28;20042;-81
2023/06/14 09:11:16;;;;;;;1.48;1.20;;;;;;;28.14;28.31;101203.44;4973587;28;20226;-81
2023/06/14 09:13:43;;;;;;;2.08;1.17;;;;;;;27.61;28.54;101200.16;4953119;28;20047;-81
2023/06/14 09:16:09;;;;;;;2.55;1.45;;;;;;;27.91;28.38;101210.50;4977824;28;20133;-83
2023/06/14 09:18:37;;;;;;;2.22;1.30;;;;;;;28.68;26.76;101202.09;4971208;28;20311;-83
2023/06/14 09:21:03;;;;;;;1.58;1.13;;;;;;;28.78;27.04;101199.53;4991124;28;20061;-80
2023/06/14 09:23:30;;;;;;;4.13;1.20;;;;;;;29.53;26.18;101205.41;4970846;28;20038;-81
2023/06/14 09:25:57;;;;;;;3.00;1.27;;;;;;;29.45;25.88;101202.44;4975731;28;20038;-82
2023/06/14 09:28:28;;;;;;;1.55;1.13;;;;;;;29.62;25.84;101198.38;4975374;28;20050;-83
2023/06/14 09:30:55;;;;;;;1.40;1.25;;;;;;;30.28;25.35;101200.19;4972427;28;20046;-81
2023/06/14 09:33:22;;;;;;;2.20;1.20;;;;;;;29.88;25.19;101200.81;4977034;28;20453;-81
2023/06/14 09:35:52;;;;;;;4.00;1.45;;;;;;;30.09;25.44;101199.03;4952017;28;20042;-80
2023/06/14 09:38:19;;;;;;;1.30;1.30;;;;;;;30.38;25.18;101205.66;4973460;28;20728;-80
2023/06/14 09:40:45;;;;;;;1.02;0.95;;;;;;;30.84;24.66;101207.16;4973773;28;20034;-81
2023/06/14 09:43:12;;;;;;;1.60;1.05;;;;;;;30.43;24.75;101200.72;4951894;28;20100;-80
2023/06/14 09:45:45;;;;;;;2.25;1.10;;;;;;;30.03;24.94;101202.25;4969583;28;20069;-81
2023/06/14 09:48:17;;;;;;;3.05;1.30;;;;;;;30.41;25.20;101211.66;4956939;28;20046;-82
2023/06/14 09:50:47;;;;;;;2.38;1.52;;;;;;;30.66;24.44;101207.78;4968625;28;20046;-79
2023/06/14 09:53:14;;;;;;;1.95;1.05;;;;;;;30.71;24.42;101201.13;4975145;28;20046;-81
2023/06/14 09:55:42;;;;;;;1.83;1.20;;;;;;;30.74;24.81;101200.84;4954742;28;20093;-80
2023/06/14 09:58:11;;;;;;;1.33;1.00;;;;;;;30.50;24.76;101202.81;4972645;28;20129;-80
2023/06/14 10:00:40;;;;;;;1.00;1.00;;;;;;;31.02;24.58;101200.16;4968198;28;20050;-83
2023/06/14 10:03:25;;;;;;;1.48;1.38;;;;;;;32.38;22.78;101192.59;4972875;28;20053;-81
2023/06/14 10:05:52;;;;;;;4.82;1.50;;;;;;;33.33;21.77;101189.97;4954167;28;20046;-83
2023/06/14 10:08:26;;;;;;;1.45;1.35;;;;;;;33.22;22.41;101198.25;4984812;28;20125;-83
2023/06/14 10:10:56;;;;;;;1.30;1.23;;;;;;;33.07;22.55;101192.47;4972247;28;20077;-81
2023/06/14 10:13:23;;;;;;;1.20;1.20;;;;;;;33.31;22.15;101194.69;4970265;28;20134;-82
2023/06/14 10:16:08;;;;;;;6.10;1.38;;;;;;;33.53;21.66;101193.44;4987812;28;20043;-81
2023/06/14 10:18:52;;;;;;;3.25;1.48;;;;;;;32.71;22.36;101190.41;4972370;28;20046;-87
2023/06/14 10:21:31;;;;;;;4.30;1.40;;;;;;;30.88;24.29;101183.44;4985115;28;20513;-86
2023/06/14 10:24:04;;;;;;;2.25;1.55;;;;;;;31.87;23.52;101181.00;4987258;28;20043;-80
2023/06/14 10:26:30;;;;;;;1.63;1.52;;;;;;;32.34;23.35;101174.91;4982574;28;20069;-83
2023/06/14 10:29:02;;;;;;;1.25;1.20;;;;;;;33.23;22.74;101183.69;4980677;28;20038;-81
2023/06/14 10:31:45;;;;;;;0.98;0.95;;;;;;;31.88;23.57;101176.44;5002009;28;20038;-80
2023/06/14 10:34:13;;;;;;;1.90;1.58;;;;;;;32.49;23.30;101180.75;4988819;28;20401;-83
2023/06/14 10:36:43;;;;;;;1.27;1.17;;;;;;;33.46;21.60;101176.06;4984601;28;20054;-84
2023/06/14 10:39:19;;;;;;;1.08;1.08;;;;;;;31.83;23.66;101166.03;4985362;28;20124;-85
2023/06/14 10:41:55;;;;;;;2.03;1.25;;;;;;;31.23;24.30;101166.84;4980971;28;20118;-82
2023/06/14 10:44:21;;;;;;;1.88;1.60;;;;;;;32.67;23.31;101167.28;4985999;28;20050;-83
2023/06/14 10:46:49;;;;;;;4.43;2.08;;;;;;;33.29;22.27;101183.16;4987361;28;20043;-82
2023/06/14 10:49:40;;;;;;;3.22;1.73;;;;;;;33.52;21.79;101180.88;4989519;28;20052;-81
2023/06/14 10:52:16;;;;;;;1.73;1.63;;;;;;;31.58;23.80;101173.66;4988935;28;20054;-82
2023/06/14 10:55:22;;;;;;;2.72;1.75;;;;;;;29.95;26.00;101172.34;4984845;28;20050;-83
2023/06/14 10:57:51;;;;;;;2.25;1.60;;;;;;;29.12;26.75;101180.72;4981365;28;20046;-81
2023/06/14 11:00:24;;;;;;;3.80;1.70;;;;;;;27.75;28.14;101178.50;4988241;28;20061;-81
2023/06/14 11:03:09;;;;;;;6.30;2.00;;;;;;;26.93;29.73;101178.91;4986673;28;20477;-80
2023/06/14 11:05:57;;;;;;;2.92;1.90;;;;;;;26.06;31.16;101178.47;4982458;28;20042;-82
2023/06/14 11:09:13;;;;;;;2.00;1.77;;;;;;;25.67;31.77;101180.09;4968894;28;20048;-81
2023/06/14 11:11:43;;;;;;;2.60;1.90;;;;;;;26.90;29.96;101168.38;4986349;28;20097;-80
2023/06/14 11:14:11;;;;;;;4.47;2.08;;;;;;;29.41;26.72;101171.31;4987761;28;20097;-80
2023/06/14 11:16:37;;;;;;;5.28;2.50;;;;;;;30.13;25.95;101159.13;4982812;28;20116;-83
2023/06/14 11:19:04;;;;;;;2.72;2.53;;;;;;;30.54;25.47;101168.28;4978950;28;20118;-81
2023/06/14 11:21:34;;;;;;;3.30;1.70;;;;;;;30.35;25.52;101160.88;4953777;28;20568;-80
2023/06/14 11:24:00;;;;;;;2.08;1.92;;;;;;;28.81;27.36;101169.69;4970481;28;20069;-87
2023/06/14 11:26:34;;;;;;;1.98;1.80;;;;;;;27.83;28.12;101159.94;4969563;28;20043;-79
2023/06/14 11:29:02;;;;;;;2.30;1.63;;;;;;;27.49;29.13;101170.50;4943829;28;20070;-82
2023/06/14 11:31:29;;;;;;;1.92;1.83;;;;;;;26.97;29.74;101161.59;4968500;28;20034;-81